Time;durP1;ratioP1;P1;durP2;ratioP2;P2;SDS_P1;SDS_P2;PMS_P1;PMS_P2;Temp;Humidity;BMP_temperature;BMP_pressure;BME280_temperature;BME280_humidity;BME280_pressure;Samples;Min_cycle;Max_cycle;Signal;HPM_P1;HPM_P2
2023/08/30 03:30:03;;;;;;;11.00;6.35;;;;;;;16.45;70.92;100821.38;7421748;19;20031;-67
2023/08/30 03:32:32;;;;;;;10.00;7.15;;;;;;;16.51;71.00;100820.75;7238057;19;3637164;-66
2023/08/30 03:35:00;;;;;;;8.50;6.40;;;;;;;16.48;70.81;100812.19;7425271;19;20077;-68
2023/08/30 03:37:27;;;;;;;9.57;7.00;;;;;;;16.42;71.25;100813.63;7426432;19;20053;-68
2023/08/30 03:39:55;;;;;;;9.70;6.78;;;;;;;16.38;71.42;100814.94;7424737;19;20010;-68
2023/08/30 03:42:22;;;;;;;9.30;6.55;;;;;;;16.30;71.68;100814.84;7423915;19;20361;-68
2023/08/30 03:44:52;;;;;;;12.13;6.97;;;;;;;16.35;71.71;100815.22;7423013;19;20486;-68
2023/08/30 03:47:20;;;;;;;13.02;7.65;;;;;;;16.35;71.79;100804.53;7425946;19;20357;-68
2023/08/30 03:49:47;;;;;;;11.65;7.05;;;;;;;16.40;71.48;100807.59;7424272;19;20053;-68
2023/08/30 03:52:15;;;;;;;9.88;7.03;;;;;;;16.46;71.46;100807.00;7397560;19;20023;-68
2023/08/30 03:54:42;;;;;;;10.75;7.38;;;;;;;16.51;71.20;100806.53;7394205;19;20023;-68
2023/08/30 03:57:09;;;;;;;9.63;6.63;;;;;;;16.44;71.49;100800.09;7397664;19;20014;-67
2023/08/30 03:59:37;;;;;;;9.45;7.05;;;;;;;16.45;71.61;100801.81;7395804;19;20542;-67
2023/08/30 04:02:04;;;;;;;11.43;7.82;;;;;;;16.42;71.54;100800.28;7396897;19;20457;-67
2023/08/30 04:04:32;;;;;;;10.52;7.25;;;;;;;16.40;71.55;100802.25;7393045;19;20022;-67
2023/08/30 04:06:59;;;;;;;12.88;7.45;;;;;;;16.39;71.71;100795.22;7394953;19;20025;-67
2023/08/30 04:09:26;;;;;;;10.25;7.43;;;;;;;16.36;72.04;100794.66;7397146;19;20010;-68
2023/08/30 04:11:54;;;;;;;12.82;8.10;;;;;;;16.33;72.14;100791.31;7397696;19;20035;-67
2023/08/30 04:14:21;;;;;;;13.98;8.02;;;;;;;16.27;72.20;100793.75;7395853;19;20533;-67
2023/08/30 04:16:51;;;;;;;10.80;7.60;;;;;;;16.26;72.42;100792.06;7398368;19;20019;-67
2023/08/30 04:19:18;;;;;;;10.98;7.53;;;;;;;16.31;72.24;100792.47;7398950;19;20023;-67
2023/08/30 04:21:46;;;;;;;10.65;7.53;;;;;;;16.28;72.38;100800.75;7397000;19;20354;-67
2023/08/30 04:24:14;;;;;;;11.45;7.70;;;;;;;16.24;72.55;100792.19;7393272;19;20038;-67
2023/08/30 04:26:41;;;;;;;12.73;7.80;;;;;;;16.26;72.51;100794.75;7396024;19;20026;-67
2023/08/30 04:29:09;;;;;;;11.75;7.68;;;;;;;16.25;72.51;100793.88;7396258;19;20032;-67
2023/08/30 04:31:36;;;;;;;12.07;8.48;;;;;;;16.19;72.87;100785.63;7395627;19;20449;-67
2023/08/30 04:34:04;;;;;;;13.27;8.20;;;;;;;16.25;72.77;100783.19;7393280;19;20014;-67
2023/08/30 04:36:31;;;;;;;13.00;7.82;;;;;;;16.26;72.72;100786.72;7394690;19;20018;-67
2023/08/30 04:38:58;;;;;;;11.43;7.80;;;;;;;16.29;72.65;100781.06;7395855;19;20050;-67
2023/08/30 04:41:29;;;;;;;13.23;7.90;;;;;;;16.16;73.18;100781.41;7395160;19;20020;-67
2023/08/30 04:43:56;;;;;;;17.75;8.57;;;;;;;16.13;73.36;100784.38;7393347;19;20364;-67
2023/08/30 04:46:24;;;;;;;12.82;8.23;;;;;;;16.14;73.55;100780.75;7395585;19;20033;-67
2023/08/30 04:48:51;;;;;;;15.45;8.52;;;;;;;16.20;73.11;100777.47;7395008;19;20011;-67
2023/08/30 04:51:19;;;;;;;14.80;8.45;;;;;;;16.17;73.23;100775.06;7393724;19;20018;-68
2023/08/30 04:53:46;;;;;;;16.83;8.63;;;;;;;16.14;73.41;100778.06;7393214;19;20018;-67
2023/08/30 04:56:14;;;;;;;16.00;7.97;;;;;;;16.21;73.17;100768.44;7393290;19;20022;-67
2023/08/30 04:58:42;;;;;;;13.18;7.95;;;;;;;16.20;73.16;100774.78;7394674;19;20019;-68
2023/08/30 05:01:11;;;;;;;16.02;8.18;;;;;;;16.23;72.87;100766.47;7393548;19;20133;-67
2023/08/30 05:03:39;;;;;;;16.95;8.20;;;;;;;16.21;73.27;100765.78;7391247;19;20341;-67
2023/08/30 05:06:07;;;;;;;15.27;7.88;;;;;;;16.06;73.50;100759.25;7394760;19;20043;-67
2023/08/30 05:08:34;;;;;;;20.80;9.45;;;;;;;15.94;74.23;100769.28;7392521;19;20015;-67
2023/08/30 05:11:02;;;;;;;16.23;9.15;;;;;;;16.02;73.82;100760.53;7393339;19;20020;-64
2023/08/30 05:13:32;;;;;;;15.77;8.18;;;;;;;16.07;73.58;100763.63;7391692;19;20043;-64
2023/08/30 05:16:00;;;;;;;14.40;9.02;;;;;;;16.01;73.77;100756.19;7394751;19;20023;-64
2023/08/30 05:18:28;;;;;;;10.50;7.55;;;;;;;16.00;73.86;100758.03;7394837;19;20069;-63
2023/08/30 05:20:56;;;;;;;11.30;8.40;;;;;;;16.05;73.64;100760.25;7391961;19;20015;-64
2023/08/30 05:23:23;;;;;;;11.57;8.40;;;;;;;16.06;73.67;100760.13;7393465;19;20026;-64
2023/08/30 05:25:51;;;;;;;13.43;9.13;;;;;;;16.11;73.39;100762.34;7394308;19;20391;-64
2023/08/30 05:28:18;;;;;;;12.85;9.30;;;;;;;16.11;73.62;100762.34;7394899;19;20375;-63
2023/08/30 05:30:45;;;;;;;13.18;8.90;;;;;;;16.14;73.29;100755.84;7392797;19;20026;-63
2023/08/30 05:33:13;;;;;;;11.63;8.75;;;;;;;16.06;73.63;100759.25;7393855;19;20018;-63
2023/08/30 05:35:41;;;;;;;13.40;8.70;;;;;;;16.12;73.57;100760.50;7395258;19;20363;-63
2023/08/30 05:38:08;;;;;;;10.95;8.82;;;;;;;16.18;73.44;100749.19;7395119;19;20018;-64
2023/08/30 05:40:36;;;;;;;11.35;8.30;;;;;;;16.15;73.45;100754.88;7391340;19;20010;-64
2023/08/30 05:43:04;;;;;;;11.63;9.32;;;;;;;16.11;73.67;100746.31;7393284;19;20018;-63
2023/08/30 05:45:31;;;;;;;13.55;8.80;;;;;;;16.18;73.71;100752.75;7394514;19;20046;-63
2023/08/30 05:47:59;;;;;;;11.60;8.05;;;;;;;16.13;73.65;100749.66;7394469;19;20018;-63
2023/08/30 05:50:26;;;;;;;14.73;9.60;;;;;;;16.07;73.85;100750.25;7394148;19;20034;-63
2023/08/30 05:52:53;;;;;;;12.13;9.15;;;;;;;16.03;73.96;100749.72;7392938;19;20018;-63
2023/08/30 05:55:21;;;;;;;15.52;10.25;;;;;;;16.07;73.79;100745.75;7393190;19;20037;-63
2023/08/30 05:57:49;;;;;;;13.98;9.18;;;;;;;16.00;73.98;100743.84;7394287;19;20018;-65
2023/08/30 06:00:16;;;;;;;14.48;10.05;;;;;;;16.00;74.36;100739.31;7393210;19;20501;-64
2023/08/30 06:02:44;;;;;;;12.73;9.43;;;;;;;16.09;73.96;100745.59;7392137;19;20374;-62
2023/08/30 06:05:12;;;;;;;13.07;9.07;;;;;;;16.18;73.34;100742.06;7392688;19;20026;-62
2023/08/30 06:07:39;;;;;;;15.32;10.02;;;;;;;16.19;73.59;100740.22;7391914;19;20520;-64
2023/08/30 06:10:07;;;;;;;15.40;9.93;;;;;;;16.18;73.69;100749.19;7392782;19;20058;-64
2023/08/30 06:12:34;;;;;;;14.65;10.70;;;;;;;16.11;73.83;100740.97;7393418;19;20363;-63
2023/08/30 06:15:03;;;;;;;14.18;10.52;;;;;;;16.17;73.61;100751.03;7390674;19;20372;-64
2023/08/30 06:17:31;;;;;;;13.90;9.90;;;;;;;16.19;73.77;100745.56;7393470;19;20020;-64
2023/08/30 06:19:59;;;;;;;14.20;10.55;;;;;;;16.19;73.57;100743.72;7392995;19;20039;-64
2023/08/30 06:22:29;;;;;;;13.40;11.02;;;;;;;16.26;73.40;100739.47;7392373;19;20022;-65
2023/08/30 06:24:57;;;;;;;14.40;10.90;;;;;;;16.28;73.43;100731.28;7392913;19;20026;-64
2023/08/30 06:27:24;;;;;;;13.82;9.70;;;;;;;16.35;73.37;100735.03;7392403;19;20109;-64
2023/08/30 06:29:51;;;;;;;13.25;10.35;;;;;;;16.36;73.37;100734.03;7392632;19;20130;-64
2023/08/30 06:32:19;;;;;;;14.35;10.32;;;;;;;16.33;73.30;100732.53;7392851;19;20025;-64
2023/08/30 06:34:46;;;;;;;14.95;10.40;;;;;;;16.41;73.12;100736.25;7390612;19;20017;-64
2023/08/30 06:37:14;;;;;;;14.07;10.52;;;;;;;16.40;73.14;100729.22;7391103;19;20034;-64
2023/08/30 06:39:41;;;;;;;15.80;11.30;;;;;;;16.41;73.16;100736.25;7392189;19;20017;-64
2023/08/30 06:42:09;;;;;;;14.77;10.30;;;;;;;16.42;72.98;100733.44;7391957;19;20042;-64
2023/08/30 06:44:36;;;;;;;14.57;10.55;;;;;;;16.41;73.07;100720.22;7389450;19;20589;-64
2023/08/30 06:47:03;;;;;;;15.18;10.10;;;;;;;16.46;72.92;100723.28;7392106;19;20023;-64
2023/08/30 06:49:31;;;;;;;16.17;11.45;;;;;;;16.43;72.83;100726.25;7391548;19;20023;-64
2023/08/30 06:52:01;;;;;;;16.48;11.23;;;;;;;16.39;72.70;100719.53;7392091;19;20074;-64
2023/08/30 06:54:32;;;;;;;14.35;11.57;;;;;;;16.41;72.82;100723.75;7389915;19;20014;-64
2023/08/30 06:57:00;;;;;;;15.10;11.13;;;;;;;16.39;72.96;100716.88;7392376;19;20482;-64
2023/08/30 06:59:28;;;;;;;14.40;11.38;;;;;;;16.51;72.85;100710.28;7392304;19;20078;-64
2023/08/30 07:01:55;;;;;;;13.55;11.10;;;;;;;16.53;72.53;100713.69;7389084;19;20022;-64
2023/08/30 07:04:23;;;;;;;14.07;11.07;;;;;;;16.52;72.55;100707.50;7389314;19;20018;-64
2023/08/30 07:06:50;;;;;;;13.07;10.02;;;;;;;16.59;72.32;100710.38;7392539;19;20505;-64
2023/08/30 07:09:18;;;;;;;13.15;10.60;;;;;;;16.54;72.53;100715.34;7391620;19;20018;-64
2023/08/30 07:11:49;;;;;;;15.68;11.00;;;;;;;16.61;72.14;100718.25;7391244;19;20018;-64
2023/08/30 07:14:16;;;;;;;15.73;10.50;;;;;;;16.68;71.95;100720.16;7389094;19;20101;-64
2023/08/30 07:16:44;;;;;;;15.70;10.35;;;;;;;16.62;71.79;100715.41;7390829;19;20124;-64
2023/08/30 07:19:11;;;;;;;16.23;10.35;;;;;;;16.67;72.10;100715.78;7390836;19;20014;-64
2023/08/30 07:21:39;;;;;;;14.07;10.23;;;;;;;16.58;72.21;100717.56;7387902;19;20023;-63
2023/08/30 07:24:07;;;;;;;13.05;9.55;;;;;;;16.67;72.04;100720.31;7389032;19;20022;-64
2023/08/30 07:26:36;;;;;;;12.75;9.90;;;;;;;16.67;72.36;100720.31;7393834;19;20026;-64
2023/08/30 07:29:06;;;;;;;15.43;10.00;;;;;;;16.81;71.77;100720.63;7397884;19;20014;-64
2023/08/30 07:31:34;;;;;;;14.80;9.85;;;;;;;16.76;71.52;100719.44;7396823;19;20018;-64
2023/08/30 07:34:02;;;;;;;14.05;9.85;;;;;;;16.80;71.61;100713.59;7394060;19;20019;-64
2023/08/30 07:36:32;;;;;;;14.32;9.20;;;;;;;16.92;71.38;100722.22;7398359;19;20018;-63
2023/08/30 07:39:13;;;;;;;13.57;10.00;;;;;;;16.93;70.97;100718.56;7400810;19;20034;-64
2023/08/30 07:41:41;;;;;;;14.32;9.40;;;;;;;16.98;70.66;100720.75;7394311;19;20019;-63
2023/08/30 07:44:08;;;;;;;14.52;9.80;;;;;;;16.96;70.68;100723.59;7393666;19;20021;-63
2023/08/30 07:46:36;;;;;;;15.65;9.50;;;;;;;17.07;69.98;100722.50;7397931;19;20047;-63
2023/08/30 07:49:03;;;;;;;16.83;8.43;;;;;;;17.15;70.06;100727.91;7399207;19;20018;-64
2023/08/30 07:51:31;;;;;;;15.05;9.32;;;;;;;17.09;70.03;100720.50;7399424;19;20517;-64
2023/08/30 07:53:58;;;;;;;14.05;8.90;;;;;;;17.21;69.41;100727.31;7396629;19;20362;-65
2023/08/30 07:56:26;;;;;;;12.68;8.30;;;;;;;17.21;69.75;100723.78;7399973;19;20018;-64
2023/08/30 07:58:54;;;;;;;11.52;8.27;;;;;;;17.24;69.51;100718.94;7396712;19;20642;-64
2023/08/30 08:01:22;;;;;;;12.15;8.15;;;;;;;17.23;69.01;100725.28;7396645;19;20039;-63
2023/08/30 08:03:49;;;;;;;11.77;8.30;;;;;;;17.36;68.80;100719.53;7396667;19;20014;-63
2023/08/30 08:06:34;;;;;;;14.38;8.40;;;;;;;17.37;68.71;100726.56;7397181;19;20071;-64
2023/08/30 08:09:05;;;;;;;12.85;8.50;;;;;;;17.40;68.12;100725.38;7397799;19;20024;-63
2023/08/30 08:11:33;;;;;;;12.77;7.75;;;;;;;17.38;67.54;100730.91;7396468;19;20059;-63
2023/08/30 08:14:00;;;;;;;15.02;7.63;;;;;;;17.35;66.58;100722.34;7394987;19;20029;-64
2023/08/30 08:16:29;;;;;;;16.30;7.15;;;;;;;17.41;66.31;100719.91;7395225;19;20033;-63
2023/08/30 08:18:59;;;;;;;18.75;7.50;;;;;;;17.50;66.36;100728.81;7396245;19;20018;-64
2023/08/30 08:21:26;;;;;;;16.23;7.32;;;;;;;17.48;65.90;100728.16;7395186;19;20019;-64
2023/08/30 08:23:54;;;;;;;18.13;7.93;;;;;;;17.51;65.39;100733.16;7393879;19;20029;-63
2023/08/30 08:26:21;;;;;;;14.70;7.25;;;;;;;17.52;65.23;100730.34;7394778;19;20018;-63
2023/08/30 08:28:49;;;;;;;13.27;7.22;;;;;;;17.56;64.77;100722.84;7396541;19;20019;-64
2023/08/30 08:31:18;;;;;;;12.15;7.38;;;;;;;17.51;64.76;100727.81;7396655;19;20332;-63
2023/08/30 08:33:45;;;;;;;13.25;7.10;;;;;;;17.52;64.84;100721.47;7393978;19;20108;-63
2023/08/30 08:36:13;;;;;;;20.92;7.63;;;;;;;17.60;64.33;100724.19;7395751;19;20023;-64
2023/08/30 08:38:41;;;;;;;20.92;7.65;;;;;;;17.72;64.27;100716.72;7395362;19;20014;-64
2023/08/30 08:41:12;;;;;;;11.90;6.85;;;;;;;17.72;64.39;100714.88;7394872;19;20019;-63
2023/08/30 08:43:42;;;;;;;11.98;6.28;;;;;;;17.81;64.16;100715.75;7393631;19;20540;-63
2023/08/30 08:46:13;;;;;;;15.10;6.75;;;;;;;17.87;63.74;100715.13;7395625;19;20490;-64
2023/08/30 08:48:43;;;;;;;10.30;6.88;;;;;;;17.83;63.27;100715.63;7394273;19;20018;-63
2023/08/30 08:51:10;;;;;;;12.07;6.20;;;;;;;17.81;63.02;100714.94;7395727;19;20085;-64
2023/08/30 08:53:38;;;;;;;10.55;6.32;;;;;;;17.85;63.07;100721.66;7393704;19;20043;-63
2023/08/30 08:56:08;;;;;;;11.75;6.38;;;;;;;17.84;63.00;100714.63;7393798;19;20053;-63
2023/08/30 08:58:37;;;;;;;9.50;6.00;;;;;;;18.01;62.81;100711.84;7391989;19;20134;-62
2023/08/30 09:01:06;;;;;;;12.95;6.40;;;;;;;18.03;62.16;100715.19;7394095;19;20029;-66
2023/08/30 09:03:41;;;;;;;10.00;6.43;;;;;;;18.04;62.91;100707.97;7393593;19;20023;-62
2023/08/30 09:06:09;;;;;;;9.88;5.90;;;;;;;18.08;62.22;100706.66;7395451;19;20018;-63
2023/08/30 09:08:37;;;;;;;9.65;5.85;;;;;;;18.16;61.74;100700.47;7394917;19;20018;-63
2023/08/30 09:11:04;;;;;;;11.60;5.80;;;;;;;18.20;60.90;100697.31;7394373;19;20026;-64
2023/08/30 09:13:31;;;;;;;10.43;5.70;;;;;;;18.25;60.44;100712.91;7391947;19;20085;-62
2023/08/30 09:15:59;;;;;;;10.77;5.93;;;;;;;18.18;59.59;100707.34;7394399;19;20094;-62
2023/08/30 09:18:27;;;;;;;11.82;6.15;;;;;;;18.19;59.03;100703.66;7395110;19;20019;-63
2023/08/30 09:21:10;;;;;;;10.45;5.80;;;;;;;18.30;58.66;100704.38;7394287;19;20022;-63
2023/08/30 09:23:38;;;;;;;10.82;5.82;;;;;;;18.30;59.26;100705.19;7393654;19;20018;-64
2023/08/30 09:26:06;;;;;;;11.77;5.93;;;;;;;18.39;59.33;100706.06;7392907;19;20022;-63
2023/08/30 09:28:43;;;;;;;10.80;6.10;;;;;;;18.48;57.83;100703.22;7393383;19;20372;-64
2023/08/30 09:31:18;;;;;;;10.55;5.55;;;;;;;18.54;58.20;100706.25;7393927;19;20030;-66
2023/08/30 09:33:49;;;;;;;12.30;5.45;;;;;;;18.45;57.11;100700.03;7392172;19;20019;-64
2023/08/30 09:36:17;;;;;;;9.15;5.50;;;;;;;18.51;56.62;100719.00;7394492;19;20474;-65
2023/08/30 09:38:48;;;;;;;10.68;5.55;;;;;;;18.54;56.25;100720.50;7394065;19;20089;-64
2023/08/30 09:41:16;;;;;;;10.38;5.78;;;;;;;18.58;56.48;100712.94;7392952;19;20513;-64
2023/08/30 09:43:43;;;;;;;9.20;5.10;;;;;;;18.61;55.94;100715.31;7391798;19;20073;-64
2023/08/30 09:46:11;;;;;;;11.07;5.82;;;;;;;18.70;56.11;100703.59;7393474;19;20498;-63
2023/08/30 09:48:40;;;;;;;11.15;5.75;;;;;;;18.78;55.92;100702.78;7392118;19;20027;-63
2023/08/30 09:51:09;;;;;;;10.00;5.35;;;;;;;18.79;56.06;100713.34;7393543;19;20014;-64
2023/08/30 09:53:43;;;;;;;10.32;5.78;;;;;;;18.86;56.50;100700.94;7392333;19;20022;-64
2023/08/30 09:56:33;;;;;;;10.38;5.35;;;;;;;18.83;56.54;100695.06;7393889;19;20038;-63
2023/08/30 09:59:03;;;;;;;15.35;6.18;;;;;;;18.92;56.01;100697.56;7391277;19;20014;-64
2023/08/30 10:01:31;;;;;;;14.90;6.45;;;;;;;19.08;55.72;100698.53;7391255;19;20045;-63
2023/08/30 10:04:00;;;;;;;15.45;6.80;;;;;;;19.22;55.23;100689.81;7390834;19;20540;-62
2023/08/30 10:06:29;;;;;;;13.43;6.13;;;;;;;19.30;55.38;100697.00;7392918;19;20019;-62
2023/08/30 10:08:57;;;;;;;15.23;6.50;;;;;;;19.40;55.15;100690.44;7393001;19;20032;-63
2023/08/30 10:11:24;;;;;;;11.35;6.60;;;;;;;19.46;55.18;100692.44;7393171;19;20025;-63
2023/08/30 10:13:55;;;;;;;13.82;7.07;;;;;;;19.46;54.51;100681.72;7391546;19;20010;-63
2023/08/30 10:16:24;;;;;;;11.70;7.00;;;;;;;19.44;54.92;100683.72;7391843;19;20037;-63
2023/08/30 10:18:54;;;;;;;14.63;6.80;;;;;;;19.47;55.07;100675.31;7392989;19;20022;-63
2023/08/30 10:21:34;;;;;;;12.30;6.38;;;;;;;19.47;55.21;100674.47;7391968;19;20018;-63
2023/08/30 10:24:05;;;;;;;13.23;5.97;;;;;;;19.32;55.17;100679.72;7390529;19;20103;-63
2023/08/30 10:26:55;;;;;;;12.27;5.80;;;;;;;19.14;55.26;100669.19;7391633;19;20493;-64
2023/08/30 10:29:23;;;;;;;14.38;6.05;;;;;;;19.28;54.81;100672.19;7392310;19;20015;-62
2023/08/30 10:31:51;;;;;;;12.75;6.18;;;;;;;19.54;55.07;100656.66;7390940;19;20372;-63
2023/08/30 10:34:19;;;;;;;13.55;6.75;;;;;;;19.71;54.12;100663.66;7389620;19;20380;-64
2023/08/30 10:36:57;;;;;;;10.93;6.55;;;;;;;19.72;54.38;100662.63;7391957;19;20021;-63
2023/08/30 10:39:34;;;;;;;11.45;6.78;;;;;;;19.55;55.15;100666.38;7392411;19;20503;-64
2023/08/30 10:42:16;;;;;;;13.75;6.88;;;;;;;19.55;55.82;100661.00;7391239;19;20023;-65
2023/08/30 10:45:05;;;;;;;17.85;7.30;;;;;;;19.61;55.25;100663.03;7389785;19;20041;-65
2023/08/30 10:47:40;;;;;;;13.45;7.32;;;;;;;19.57;55.40;100666.19;7391763;19;20499;-64
2023/08/30 10:50:11;;;;;;;13.82;7.93;;;;;;;19.58;54.77;100663.38;7392180;19;20011;-64
2023/08/30 10:52:38;;;;;;;13.48;7.78;;;;;;;19.58;54.99;100662.53;7390058;19;20019;-66
2023/08/30 10:55:11;;;;;;;14.68;7.50;;;;;;;19.64;54.86;100654.63;7391372;19;20018;-62
2023/08/30 10:57:43;;;;;;;18.65;7.20;;;;;;;19.73;55.44;100650.06;7390557;19;20033;-65
2023/08/30 11:00:19;;;;;;;11.77;6.45;;;;;;;19.81;55.50;100649.19;7389871;19;20018;-63
2023/08/30 11:02:51;;;;;;;15.70;7.30;;;;;;;19.87;55.09;100635.84;7396483;19;20026;-62
2023/08/30 11:05:25;;;;;;;16.38;7.35;;;;;;;19.98;55.08;100640.00;7399712;19;20049;-63
2023/08/30 11:07:52;;;;;;;15.68;8.60;;;;;;;19.87;55.54;100635.03;7399229;19;20021;-63
2023/08/30 11:10:20;;;;;;;15.13;7.95;;;;;;;19.87;55.50;100629.66;7399602;19;20015;-64
2023/08/30 11:12:49;;;;;;;14.05;8.00;;;;;;;19.81;55.72;100625.84;7396960;19;20014;-64
2023/08/30 11:15:17;;;;;;;15.30;9.02;;;;;;;19.74;55.57;100629.41;7397753;19;20022;-64
2023/08/30 11:17:45;;;;;;;16.80;9.48;;;;;;;19.69;55.25;100629.94;7398763;19;20045;-63
2023/08/30 11:20:16;;;;;;;16.95;8.93;;;;;;;19.55;55.24;100626.09;7398807;19;20018;-63
2023/08/30 11:22:45;;;;;;;20.52;10.20;;;;;;;19.43;55.58;100624.81;7396142;19;20538;-63
2023/08/30 11:25:15;;;;;;;15.20;10.07;;;;;;;19.32;55.71;100617.13;7398340;19;20344;-64
2023/08/30 11:27:42;;;;;;;15.00;8.93;;;;;;;19.41;55.77;100614.22;7397020;19;20046;-63
2023/08/30 11:30:11;;;;;;;17.38;9.45;;;;;;;19.59;55.59;100618.53;7398331;19;20494;-62
2023/08/30 11:32:42;;;;;;;16.48;9.07;;;;;;;19.79;55.59;100617.09;7397241;19;20024;-63
2023/08/30 11:35:11;;;;;;;16.63;9.88;;;;;;;19.83;55.33;100607.66;7396755;19;20024;-62
2023/08/30 11:37:40;;;;;;;17.52;9.52;;;;;;;19.72;55.39;100613.44;7396315;19;20018;-63
2023/08/30 11:40:08;;;;;;;18.27;9.77;;;;;;;19.54;56.31;100616.38;7396865;19;20644;-64
2023/08/30 11:42:36;;;;;;;13.88;8.32;;;;;;;19.38;57.02;100606.50;7398336;19;20011;-63
2023/08/30 11:45:04;;;;;;;13.30;8.32;;;;;;;19.30;56.75;100605.72;7399711;19;20021;-62
2023/08/30 11:47:31;;;;;;;13.57;8.82;;;;;;;19.34;56.80;100607.03;7398730;19;20019;-62
2023/08/30 11:49:59;;;;;;;15.48;8.00;;;;;;;19.32;56.76;100599.16;7399661;19;20517;-62
2023/08/30 11:52:27;;;;;;;13.63;8.93;;;;;;;19.28;56.93;100589.78;7398215;19;20082;-63
2023/08/30 11:54:55;;;;;;;12.02;8.20;;;;;;;19.27;57.23;100593.50;7399449;19;20011;-63
2023/08/30 11:57:23;;;;;;;14.80;8.38;;;;;;;19.30;57.61;100587.75;7400337;19;20018;-63
2023/08/30 11:59:50;;;;;;;14.98;8.35;;;;;;;19.43;57.65;100585.34;7399757;19;20018;-63
2023/08/30 12:02:18;;;;;;;11.38;7.60;;;;;;;19.59;56.88;100580.91;7398945;19;20015;-62
2023/08/30 12:04:46;;;;;;;12.98;8.15;;;;;;;19.74;56.85;100581.88;7396937;19;20014;-63
2023/08/30 12:07:25;;;;;;;17.45;9.38;;;;;;;19.72;56.74;100584.72;7399711;19;20510;-62
2023/08/30 12:10:08;;;;;;;16.85;9.63;;;;;;;19.64;57.06;100586.63;7398020;19;20022;-62
2023/08/30 12:12:38;;;;;;;18.70;8.63;;;;;;;19.63;57.51;100579.56;7397207;19;20022;-62
2023/08/30 12:15:12;;;;;;;18.45;8.55;;;;;;;19.68;57.18;100577.19;7398369;19;20039;-62
2023/08/30 12:17:40;;;;;;;16.65;9.25;;;;;;;19.65;57.02;100577.53;7398401;19;20026;-62
2023/08/30 12:20:16;;;;;;;14.30;8.48;;;;;;;19.68;57.31;100583.38;7396842;19;20047;-63
2023/08/30 12:22:44;;;;;;;16.40;8.43;;;;;;;19.64;57.68;100575.88;7395836;19;20015;-62
2023/08/30 12:25:26;;;;;;;13.50;8.00;;;;;;;19.66;57.41;100573.84;7396075;19;20364;-63
2023/08/30 12:27:53;;;;;;;15.77;8.60;;;;;;;19.52;57.78;100566.50;7395729;19;20018;-63
2023/08/30 12:30:21;;;;;;;11.93;8.07;;;;;;;19.51;57.60;100557.63;7397152;19;20018;-64
2023/08/30 12:32:48;;;;;;;14.50;8.18;;;;;;;19.52;57.88;100561.97;7395899;19;20027;-63
2023/08/30 12:35:16;;;;;;;14.13;8.23;;;;;;;19.51;57.85;100565.66;7397305;19;20110;-63
2023/08/30 12:37:43;;;;;;;12.80;8.13;;;;;;;19.41;58.08;100552.44;7397248;19;20407;-63
2023/08/30 12:40:11;;;;;;;12.70;7.50;;;;;;;19.41;58.02;100556.97;7396265;19;20011;-62
2023/08/30 12:42:39;;;;;;;12.50;7.78;;;;;;;19.46;57.96;100551.94;7394339;19;20014;-62
2023/08/30 12:45:07;;;;;;;11.02;7.78;;;;;;;19.50;58.14;100558.63;7396367;19;20019;-61
2023/08/30 12:47:35;;;;;;;13.45;7.25;;;;;;;19.59;58.15;100557.56;7394273;19;20026;-64
2023/08/30 12:50:04;;;;;;;12.23;7.50;;;;;;;19.79;57.58;100557.97;7395410;19;20021;-63
2023/08/30 12:52:31;;;;;;;17.15;7.05;;;;;;;19.81;57.63;100555.97;7395186;19;20466;-63
2023/08/30 12:54:59;;;;;;;15.80;7.10;;;;;;;19.83;57.89;100547.72;7394150;19;20489;-64
2023/08/30 12:57:26;;;;;;;11.25;6.90;;;;;;;19.71;57.44;100547.28;7395507;19;20482;-64
2023/08/30 12:59:54;;;;;;;13.25;7.22;;;;;;;19.54;57.94;100554.59;7395812;19;20014;-64
2023/08/30 13:02:21;;;;;;;12.15;7.00;;;;;;;19.48;58.14;100544.53;7394638;19;20030;-64
2023/08/30 13:04:49;;;;;;;13.35;7.80;;;;;;;19.43;58.81;100557.66;7392874;19;20019;-63
2023/08/30 13:07:17;;;;;;;12.23;7.40;;;;;;;19.32;59.25;100558.06;7395405;19;20019;-64
2023/08/30 13:09:44;;;;;;;14.77;8.65;;;;;;;19.19;60.91;100559.44;7395162;19;20379;-63
2023/08/30 13:12:12;;;;;;;16.00;9.30;;;;;;;19.07;62.39;100552.75;7395490;19;20078;-63
2023/08/30 13:14:40;;;;;;;14.18;9.00;;;;;;;19.01;63.20;100556.16;7392673;19;20025;-63
2023/08/30 13:17:07;;;;;;;15.75;9.38;;;;;;;18.94;64.16;100558.69;7395119;19;20023;-63
2023/08/30 13:19:35;;;;;;;12.73;8.85;;;;;;;19.03;64.75;100562.19;7394937;19;20356;-63
2023/08/30 13:22:02;;;;;;;13.93;8.50;;;;;;;19.02;65.70;100555.13;7393259;19;20033;-65
2023/08/30 13:24:32;;;;;;;15.55;9.50;;;;;;;19.03;66.92;100556.81;7388379;19;20026;-65
2023/08/30 13:27:00;;;;;;;14.38;9.30;;;;;;;18.97;67.50;100552.16;7394224;19;20045;-64
2023/08/30 13:29:28;;;;;;;14.00;9.20;;;;;;;18.94;67.67;100557.84;7392823;19;20056;-63
2023/08/30 13:31:55;;;;;;;16.45;9.52;;;;;;;18.85;67.51;100564.22;7392762;19;20664;-63
2023/08/30 13:34:22;;;;;;;14.50;9.70;;;;;;;18.81;67.89;100562.91;7391861;19;20039;-63
2023/08/30 13:36:50;;;;;;;12.48;8.05;;;;;;;18.79;67.91;100552.34;7392571;19;20019;-63
2023/08/30 13:39:21;;;;;;;12.63;8.70;;;;;;;18.73;68.86;100551.22;7392720;19;20026;-63
2023/08/30 13:41:49;;;;;;;14.75;8.40;;;;;;;18.75;68.85;100551.84;7392363;19;20091;-63
2023/08/30 13:44:16;;;;;;;13.43;8.18;;;;;;;18.70;70.38;100546.19;7389768;19;20022;-64
2023/08/30 13:46:46;;;;;;;14.05;9.30;;;;;;;18.67;70.81;100546.47;7393638;19;20019;-64
2023/08/30 13:49:15;;;;;;;14.00;9.43;;;;;;;18.64;70.52;100556.72;7393711;19;20011;-67
2023/08/30 13:51:44;;;;;;;11.75;7.53;;;;;;;18.59;69.45;100554.56;7393310;19;20490;-66
2023/08/30 13:54:12;;;;;;;11.60;8.15;;;;;;;18.60;69.84;100545.50;7391763;19;20010;-65
2023/08/30 13:56:39;;;;;;;15.07;9.63;;;;;;;18.53;71.24;100552.53;7393371;19;20018;-65
2023/08/30 13:59:07;;;;;;;12.98;9.27;;;;;;;18.50;70.42;100545.66;7393199;19;20022;-65
2023/08/30 14:01:37;;;;;;;12.23;8.60;;;;;;;18.48;71.61;100541.50;7392809;19;20615;-66
2023/08/30 14:04:05;;;;;;;13.82;9.27;;;;;;;18.41;72.23;100545.84;7391447;19;20022;-66
2023/08/30 14:06:33;;;;;;;12.77;7.85;;;;;;;18.34;72.63;100534.97;7391702;19;20022;-66
2023/08/30 14:09:01;;;;;;;14.35;8.57;;;;;;;18.33;72.51;100545.88;7392775;19;20027;-66
2023/08/30 14:11:28;;;;;;;15.23;9.60;;;;;;;18.21;73.32;100545.38;7392735;19;20039;-65
2023/08/30 14:13:56;;;;;;;13.43;8.07;;;;;;;18.20;72.74;100539.16;7389398;19;20081;-65
2023/08/30 14:16:24;;;;;;;12.73;8.18;;;;;;;18.23;71.48;100549.53;7393145;19;20030;-64
2023/08/30 14:19:11;;;;;;;14.93;8.73;;;;;;;18.13;71.43;100554.25;7392888;19;20022;-64
2023/08/30 14:21:38;;;;;;;15.73;9.00;;;;;;;18.19;70.45;100556.22;7392788;19;20039;-64
2023/08/30 14:24:06;;;;;;;16.00;8.60;;;;;;;18.20;70.82;100560.63;7390672;19;20494;-64
2023/08/30 14:26:34;;;;;;;15.48;8.35;;;;;;;18.26;70.62;100551.88;7392026;19;20414;-63
2023/08/30 14:29:01;;;;;;;11.70;8.65;;;;;;;18.23;70.66;100549.53;7392491;19;20035;-64
2023/08/30 14:31:30;;;;;;;12.98;8.65;;;;;;;18.25;71.52;100558.25;7391040;19;20088;-63
2023/08/30 14:33:58;;;;;;;13.27;8.25;;;;;;;18.24;72.02;100561.97;7390837;19;20526;-62
2023/08/30 14:36:25;;;;;;;15.25;9.43;;;;;;;18.15;72.03;100562.94;7392105;19;20038;-63
2023/08/30 14:38:53;;;;;;;13.73;9.20;;;;;;;18.17;71.82;100581.56;7392334;19;20019;-63
2023/08/30 14:41:20;;;;;;;15.73;9.93;;;;;;;18.11;72.02;100575.00;7392178;19;20045;-63
2023/08/30 14:43:48;;;;;;;15.00;9.75;;;;;;;18.11;71.47;100566.13;7389816;19;20035;-63
2023/08/30 14:46:17;;;;;;;15.48;9.65;;;;;;;18.09;71.38;100562.78;7391781;19;20482;-63
2023/08/30 14:48:50;;;;;;;15.45;9.05;;;;;;;18.09;70.83;100557.44;7392211;19;20098;-63
2023/08/30 14:51:17;;;;;;;13.25;9.65;;;;;;;18.05;71.06;100543.53;7392479;19;20096;-63
2023/08/30 14:53:48;;;;;;;13.73;9.70;;;;;;;18.02;70.74;100528.59;7388240;19;20426;-65